Dalecity, Virginia
Current Conditions -  °F | °C
As of 2:58 PM on Monday 24 Nov 2014 (Local Time) from KDAA Reporting Station
Clear Clear  
Wind Chill: 72°   Ceiling: Unl
Heat Index: 72°   Visibility: 10mi
Dew Point: 53°   Wind: 10mph
Humidity: 50%   Direction: 180°S
Pressure: 29.64"   Gusts: NA
Location:  38.6486°N, 77.3446°W
Report Text: KDAA 241958Z AUTO 18009KT 10SM CLR 22/12 A2964 RMK AO2 SLP040 T02230115
Loading
Personal Weather Stations






























Interactive Weather Map New forecast layout! Learn more

10-Day Weather Forecast

Advertisements
Track Severe Weather on mobile